Time;durP1;ratioP1;P1;durP2;ratioP2;P2;SDS_P1;SDS_P2;PMS_P1;PMS_P2;Temp;Humidity;BMP_temperature;BMP_pressure;BME280_temperature;BME280_humidity;BME280_pressure;Samples;Min_cycle;Max_cycle;Signal;HPM_P1;HPM_P2
2023/01/06 00:00:32;;;;;;;36.75;23.23;;;9.60;99.90;;;;;;4911485;29;20032;-74
2023/01/06 00:02:58;;;;;;;33.90;20.70;;;9.50;99.90;;;;;;4920429;29;20024;-73
2023/01/06 00:05:24;;;;;;;26.95;19.42;;;9.40;99.90;;;;;;4918198;29;20036;-74
2023/01/06 00:07:51;;;;;;;29.48;19.10;;;9.40;99.90;;;;;;4918086;29;20080;-73
2023/01/06 00:10:18;;;;;;;32.00;19.58;;;9.40;99.90;;;;;;4918159;29;20468;-73
2023/01/06 00:12:45;;;;;;;29.08;19.23;;;9.40;99.90;;;;;;4917998;29;20024;-74
2023/01/06 00:15:30;;;;;;;28.98;18.10;;;9.40;99.90;;;;;;4918012;29;20063;-73
2023/01/06 00:17:56;;;;;;;28.88;18.30;;;9.40;99.90;;;;;;4917884;29;20036;-74
2023/01/06 00:20:22;;;;;;;29.08;19.40;;;9.40;99.90;;;;;;4917763;29;20160;-74
2023/01/06 00:22:48;;;;;;;30.33;19.60;;;9.30;99.90;;;;;;4917855;29;20032;-74
2023/01/06 00:25:14;;;;;;;33.55;20.80;;;9.20;99.90;;;;;;4917951;29;20031;-74
2023/01/06 00:27:40;;;;;;;31.85;20.02;;;9.20;99.90;;;;;;4917815;29;20508;-74
2023/01/06 00:30:07;;;;;;;33.45;21.08;;;9.20;99.90;;;;;;4904137;29;20464;-74
2023/01/06 00:32:33;;;;;;;33.92;21.15;;;9.00;99.90;;;;;;4909413;29;20064;-74
2023/01/06 00:34:59;;;;;;;32.35;21.08;;;9.00;99.90;;;;;;4930142;29;20027;-74
2023/01/06 00:37:25;;;;;;;33.28;21.35;;;9.10;99.90;;;;;;4900702;29;20032;-74
2023/01/06 00:39:51;;;;;;;37.20;21.42;;;9.00;99.90;;;;;;4900826;29;20028;-74
2023/01/06 00:42:17;;;;;;;32.47;20.15;;;9.00;99.90;;;;;;4917507;29;20028;-74
2023/01/06 00:44:43;;;;;;;31.13;19.25;;;8.90;99.90;;;;;;4916835;29;20104;-74
2023/01/06 00:47:10;;;;;;;33.17;20.30;;;8.90;99.90;;;;;;4917594;29;20036;-73
2023/01/06 00:49:37;;;;;;;29.13;19.42;;;8.90;99.90;;;;;;4917413;29;20107;-74
2023/01/06 00:52:05;;;;;;;34.97;19.80;;;8.90;99.90;;;;;;4898827;29;20055;-73
2023/01/06 00:54:31;;;;;;;31.95;19.48;;;8.80;99.90;;;;;;4915341;29;20028;-73
2023/01/06 00:56:57;;;;;;;28.02;17.52;;;8.80;99.90;;;;;;4916695;29;20031;-73
2023/01/06 00:59:25;;;;;;;31.88;19.20;;;8.90;99.90;;;;;;4916506;29;20024;-73
2023/01/06 01:01:53;;;;;;;31.33;19.95;;;8.90;99.90;;;;;;4917333;29;20023;-73
2023/01/06 01:04:20;;;;;;;28.20;18.42;;;9.00;99.90;;;;;;4899901;29;20036;-73
2023/01/06 01:06:47;;;;;;;27.77;18.00;;;8.90;99.90;;;;;;4915196;29;20053;-73
2023/01/06 01:09:18;;;;;;;23.70;14.80;;;8.90;99.90;;;;;;4917129;29;20020;-73
2023/01/06 01:14:29;;;;;;;29.45;16.05;;;9.00;99.90;;;;;;4920647;29;20114;-73
2023/01/06 01:16:55;;;;;;;26.98;15.55;;;9.00;99.90;;;;;;4916494;29;20420;-73
2023/01/06 01:19:22;;;;;;;25.13;14.30;;;8.90;99.90;;;;;;4925253;29;20389;-74
2023/01/06 01:21:49;;;;;;;24.08;14.30;;;8.90;99.90;;;;;;4916825;29;20028;-74
2023/01/06 01:24:16;;;;;;;28.23;15.82;;;8.90;99.90;;;;;;4915623;29;20111;-74
2023/01/06 01:26:42;;;;;;;25.40;16.10;;;8.90;99.90;;;;;;4916247;29;20118;-74
2023/01/06 01:29:15;;;;;;;24.42;15.00;;;8.80;99.90;;;;;;4897080;29;20073;-73
2023/01/06 01:31:41;;;;;;;27.38;15.90;;;8.80;99.90;;;;;;4898136;29;20112;-74
2023/01/06 01:34:09;;;;;;;29.40;16.48;;;8.70;99.90;;;;;;4915626;29;20039;-75
2023/01/06 01:36:35;;;;;;;26.60;16.10;;;8.70;99.90;;;;;;4907145;29;20164;-74
2023/01/06 01:39:01;;;;;;;26.60;15.63;;;8.60;99.90;;;;;;4900072;29;20111;-74
2023/01/06 01:41:28;;;;;;;27.58;15.27;;;8.60;99.90;;;;;;4899832;29;20032;-74
2023/01/06 01:44:03;;;;;;;25.45;15.50;;;8.50;99.90;;;;;;4922507;29;20106;-74
2023/01/06 01:46:41;;;;;;;22.75;13.00;;;8.50;99.90;;;;;;4921872;29;20044;-74
2023/01/06 01:49:16;;;;;;;26.50;13.48;;;8.50;99.90;;;;;;4916615;29;20429;-74
2023/01/06 01:51:45;;;;;;;29.58;16.75;;;8.50;99.90;;;;;;4916677;29;20021;-75
2023/01/06 01:54:14;;;;;;;26.08;16.65;;;8.40;99.90;;;;;;4916653;29;20032;-75
2023/01/06 01:56:44;;;;;;;26.02;14.82;;;8.40;99.90;;;;;;4900885;29;20064;-74
2023/01/06 01:59:23;;;;;;;27.25;15.05;;;8.40;99.90;;;;;;4915627;29;20028;-74
2023/01/06 02:01:50;;;;;;;25.20;15.00;;;8.40;99.90;;;;;;4919068;29;20521;-74
2023/01/06 02:04:19;;;;;;;24.42;15.18;;;8.30;99.90;;;;;;4902300;29;20024;-74
2023/01/06 02:06:49;;;;;;;21.08;14.05;;;8.30;99.90;;;;;;4902944;29;20048;-74
2023/01/06 02:09:26;;;;;;;27.25;15.80;;;8.30;99.90;;;;;;4920175;29;20024;-74
2023/01/06 02:11:55;;;;;;;31.30;16.17;;;8.30;99.90;;;;;;4919942;29;20031;-74
2023/01/06 02:14:23;;;;;;;29.73;16.17;;;8.30;99.90;;;;;;4920296;29;20024;-75
2023/01/06 02:17:08;;;;;;;26.25;16.52;;;8.30;99.90;;;;;;4902974;29;20036;-75
2023/01/06 02:19:52;;;;;;;31.30;18.02;;;8.30;99.90;;;;;;4913231;29;20493;-74
2023/01/06 02:22:57;;;;;;;27.15;17.23;;;8.40;99.90;;;;;;4920322;29;20112;-74
2023/01/06 02:25:23;;;;;;;31.23;19.08;;;8.30;99.90;;;;;;4898750;29;20409;-74
2023/01/06 02:28:01;;;;;;;32.17;20.50;;;8.30;99.90;;;;;;4883404;29;20509;-74
2023/01/06 02:30:39;;;;;;;39.22;20.75;;;8.20;99.90;;;;;;4874691;29;20076;-73
2023/01/06 02:33:08;;;;;;;30.58;18.35;;;8.10;99.90;;;;;;4899042;29;20028;-74
2023/01/06 02:36:03;;;;;;;30.70;18.30;;;8.00;99.90;;;;;;4898998;29;20389;-74
2023/01/06 02:38:37;;;;;;;35.15;20.30;;;7.90;99.90;;;;;;4843078;29;20038;-74
2023/01/06 02:41:13;;;;;;;38.97;23.38;;;7.90;99.90;;;;;;4853089;29;20038;-74
2023/01/06 02:43:45;;;;;;;40.38;25.02;;;7.80;99.90;;;;;;4843030;29;20383;-74
2023/01/06 02:46:19;;;;;;;40.80;24.90;;;7.80;99.90;;;;;;4845429;29;20049;-73
2023/01/06 02:48:51;;;;;;;38.42;24.23;;;7.80;99.90;;;;;;4825949;29;20045;-74
2023/01/06 02:51:41;;;;;;;40.13;23.80;;;7.80;99.90;;;;;;4823809;29;20041;-73
2023/01/06 02:54:19;;;;;;;37.08;22.80;;;7.70;99.90;;;;;;4837299;29;20030;-74
2023/01/06 02:56:50;;;;;;;37.95;22.77;;;7.70;99.90;;;;;;4838106;29;20042;-73
2023/01/06 02:59:31;;;;;;;44.10;22.85;;;7.60;99.90;;;;;;4837254;29;20074;-74
2023/01/06 03:01:59;;;;;;;37.00;23.10;;;7.60;99.90;;;;;;4825341;29;20504;-74
2023/01/06 03:04:34;;;;;;;38.65;23.10;;;7.60;99.90;;;;;;4851727;29;20034;-74
2023/01/06 03:07:02;;;;;;;37.60;24.20;;;7.60;99.90;;;;;;4865579;29;20080;-74
2023/01/06 03:09:34;;;;;;;47.22;28.55;;;7.50;99.90;;;;;;4842659;29;20113;-73
2023/01/06 03:12:15;;;;;;;41.25;23.73;;;7.50;99.90;;;;;;4857052;29;20105;-73
2023/01/06 03:14:48;;;;;;;40.60;26.48;;;7.40;99.90;;;;;;4850435;29;20042;-74
2023/01/06 03:17:14;;;;;;;44.08;26.67;;;7.30;99.90;;;;;;4900547;29;20032;-74
2023/01/06 03:19:41;;;;;;;46.42;25.42;;;7.30;99.90;;;;;;4919255;29;20130;-74
2023/01/06 03:22:11;;;;;;;37.13;23.10;;;7.40;99.90;;;;;;4899104;29;20028;-73
2023/01/06 03:24:38;;;;;;;38.53;25.52;;;7.20;99.90;;;;;;4911525;29;20100;-74
2023/01/06 03:27:06;;;;;;;40.80;24.50;;;7.10;99.90;;;;;;4914522;29;20094;-74
2023/01/06 03:29:35;;;;;;;41.17;24.17;;;6.90;99.90;;;;;;4918877;29;20115;-73
2023/01/06 03:32:31;;;;;;;41.47;26.92;;;6.70;99.90;;;;;;4902387;29;20058;-74
2023/01/06 03:35:34;;;;;;;44.05;24.52;;;6.70;99.90;;;;;;4918461;29;20119;-74
2023/01/06 03:38:25;;;;;;;38.95;24.60;;;6.60;99.90;;;;;;4918672;29;20607;-74
2023/01/06 03:41:03;;;;;;;45.92;29.15;;;6.60;99.90;;;;;;4918973;29;20039;-74
2023/01/06 03:43:42;;;;;;;41.35;26.20;;;6.60;99.90;;;;;;4889782;29;20374;-74
2023/01/06 03:46:26;;;;;;;48.88;29.02;;;6.60;99.90;;;;;;4901325;29;20051;-74
2023/01/06 03:48:59;;;;;;;44.05;28.40;;;6.50;99.90;;;;;;4918705;29;20437;-74
2023/01/06 03:51:51;;;;;;;48.42;29.70;;;6.50;99.90;;;;;;4898114;29;20107;-73
2023/01/06 03:54:40;;;;;;;48.90;30.38;;;6.40;99.90;;;;;;4917120;29;20092;-73
2023/01/06 03:57:19;;;;;;;51.30;31.33;;;6.10;99.90;;;;;;4924270;29;20421;-73
2023/01/06 03:59:53;;;;;;;46.25;29.63;;;6.20;99.90;;;;;;4889835;29;20035;-73
2023/01/06 04:02:20;;;;;;;44.90;26.02;;;6.20;99.90;;;;;;4918381;29;20385;-73
2023/01/06 04:05:20;;;;;;;38.15;25.67;;;6.10;99.90;;;;;;4901132;29;20481;-73
2023/01/06 04:07:49;;;;;;;45.33;29.75;;;6.20;99.90;;;;;;4862866;29;20037;-73
2023/01/06 04:10:18;;;;;;;43.47;27.85;;;6.10;99.90;;;;;;4878390;29;20037;-73
2023/01/06 04:12:46;;;;;;;47.20;28.38;;;6.10;99.90;;;;;;4878097;29;20066;-73
2023/01/06 04:15:23;;;;;;;43.50;28.92;;;6.10;99.90;;;;;;4879211;29;20093;-73
2023/01/06 04:17:51;;;;;;;48.60;27.45;;;6.10;99.90;;;;;;4877584;29;20037;-73
2023/01/06 04:20:24;;;;;;;48.60;29.40;;;6.00;99.90;;;;;;4877252;29;20128;-73
2023/01/06 04:22:56;;;;;;;47.30;28.75;;;6.10;99.90;;;;;;4862690;29;20112;-72
2023/01/06 04:25:23;;;;;;;48.38;29.67;;;6.10;99.90;;;;;;4862736;29;20041;-71
2023/01/06 04:27:49;;;;;;;53.72;33.70;;;6.00;99.90;;;;;;4878270;29;20025;-72
2023/01/06 04:30:16;;;;;;;43.58;26.75;;;6.00;99.90;;;;;;4878120;29;20064;-72
2023/01/06 04:32:43;;;;;;;37.08;23.75;;;6.10;99.90;;;;;;4862751;29;20029;-73
2023/01/06 04:35:09;;;;;;;40.85;24.70;;;6.20;99.90;;;;;;4862571;29;20033;-72
2023/01/06 04:37:36;;;;;;;36.40;23.35;;;6.20;99.90;;;;;;4878000;29;20552;-73
2023/01/06 04:40:02;;;;;;;35.60;22.35;;;6.30;99.90;;;;;;4878170;29;20036;-73
2023/01/06 04:45:22;;;;;;;36.13;21.40;;;6.30;99.90;;;;;;5079879;28;20020;-73
2023/01/06 04:47:48;;;;;;;36.83;22.13;;;6.30;99.90;;;;;;5090476;28;20047;-73
2023/01/06 04:50:14;;;;;;;35.42;20.52;;;6.20;99.90;;;;;;5090761;28;20028;-73
2023/01/06 04:52:40;;;;;;;34.67;20.75;;;6.20;99.90;;;;;;5088738;28;20096;-73
2023/01/06 04:55:06;;;;;;;34.67;22.10;;;6.20;99.90;;;;;;5110828;28;20055;-73
2023/01/06 04:57:32;;;;;;;36.80;23.67;;;6.20;99.90;;;;;;5110407;28;20020;-73
2023/01/06 04:59:58;;;;;;;37.60;24.20;;;6.20;99.90;;;;;;5091811;28;20039;-72
2023/01/06 05:02:24;;;;;;;37.50;24.42;;;6.30;99.90;;;;;;5110849;28;20039;-73
2023/01/06 05:04:50;;;;;;;41.92;24.05;;;6.40;99.90;;;;;;5110322;28;20016;-73
2023/01/06 05:07:16;;;;;;;37.67;25.42;;;6.50;99.90;;;;;;5110359;28;20117;-73
2023/01/06 05:09:41;;;;;;;39.58;25.88;;;6.50;99.90;;;;;;5110233;28;20028;-73
2023/01/06 05:12:07;;;;;;;40.30;24.48;;;6.50;99.90;;;;;;5102843;28;20029;-73
2023/01/06 05:14:33;;;;;;;37.33;25.10;;;6.40;99.90;;;;;;5110412;28;20038;-73
2023/01/06 05:16:59;;;;;;;54.05;32.45;;;6.40;99.90;;;;;;5104862;28;20023;-73
2023/01/06 05:19:25;;;;;;;60.45;34.53;;;6.40;99.90;;;;;;5099621;28;20027;-73
2023/01/06 05:21:51;;;;;;;54.75;34.75;;;6.50;99.90;;;;;;5095278;28;20034;-73
2023/01/06 05:24:17;;;;;;;47.90;31.92;;;6.60;99.90;;;;;;5100720;28;20027;-73
2023/01/06 05:26:42;;;;;;;56.40;32.78;;;6.60;99.90;;;;;;5109737;28;20467;-72
2023/01/06 05:29:14;;;;;;;51.95;31.75;;;6.60;99.90;;;;;;5103532;28;20024;-72
2023/01/06 05:31:40;;;;;;;52.95;33.42;;;6.60;99.90;;;;;;5099948;28;20088;-73
2023/01/06 05:34:06;;;;;;;43.92;30.65;;;6.60;99.90;;;;;;5103470;28;20392;-73
2023/01/06 05:36:32;;;;;;;45.83;31.08;;;6.60;99.90;;;;;;5087916;28;20533;-73
2023/01/06 05:38:57;;;;;;;45.65;30.30;;;6.50;99.90;;;;;;5083922;28;20020;-73
2023/01/06 05:41:23;;;;;;;42.72;28.15;;;6.50;99.90;;;;;;5077696;28;20772;-73
2023/01/06 05:43:49;;;;;;;46.47;30.90;;;6.50;99.90;;;;;;5084220;28;20047;-72
2023/01/06 05:46:15;;;;;;;44.75;29.52;;;6.50;99.90;;;;;;5084580;28;20055;-73
2023/01/06 05:48:41;;;;;;;46.17;29.75;;;6.50;99.90;;;;;;5086549;28;20031;-73
2023/01/06 05:51:09;;;;;;;50.45;30.02;;;6.50;99.90;;;;;;5092390;28;20685;-73
2023/01/06 05:53:36;;;;;;;43.90;31.58;;;6.50;99.90;;;;;;5096716;28;20463;-73
2023/01/06 05:56:07;;;;;;;50.65;32.80;;;6.50;99.90;;;;;;5088160;28;20020;-73
2023/01/06 05:58:33;;;;;;;63.85;40.22;;;6.50;99.90;;;;;;5096032;28;20376;-73
2023/01/06 06:01:00;;;;;;;69.47;43.20;;;6.40;99.90;;;;;;5091908;28;20059;-73
2023/01/06 06:03:26;;;;;;;70.47;46.35;;;6.40;99.90;;;;;;5086787;28;20407;-73
2023/01/06 06:05:51;;;;;;;63.30;44.33;;;6.40;99.90;;;;;;5093407;28;20016;-73
2023/01/06 06:08:17;;;;;;;58.38;37.80;;;6.50;99.90;;;;;;5082169;28;20078;-73
2023/01/06 06:10:43;;;;;;;76.07;49.95;;;6.40;99.90;;;;;;5093174;28;20461;-73
2023/01/06 06:13:09;;;;;;;74.93;48.38;;;6.40;99.90;;;;;;5089434;28;20468;-73
2023/01/06 06:15:35;;;;;;;75.40;50.42;;;6.40;99.90;;;;;;5089960;28;20472;-73
2023/01/06 06:18:02;;;;;;;74.43;48.70;;;6.30;99.90;;;;;;5095420;28;20074;-73
2023/01/06 06:20:28;;;;;;;74.32;52.08;;;6.30;99.90;;;;;;5095246;28;20031;-73
2023/01/06 06:22:54;;;;;;;75.13;50.97;;;6.30;99.90;;;;;;5086124;28;20056;-73
2023/01/06 06:25:20;;;;;;;74.43;51.65;;;6.30;99.90;;;;;;5087113;28;20027;-73
2023/01/06 06:27:46;;;;;;;73.25;49.95;;;6.20;99.90;;;;;;5095062;28;20035;-73
2023/01/06 06:30:12;;;;;;;76.65;48.80;;;6.20;99.90;;;;;;5090619;28;20380;-73
2023/01/06 06:32:38;;;;;;;124.82;87.20;;;6.20;99.90;;;;;;5082857;28;20040;-73
2023/01/06 06:35:04;;;;;;;114.90;77.88;;;6.20;99.90;;;;;;5081712;28;20023;-73
2023/01/06 06:37:30;;;;;;;185.38;126.95;;;6.20;99.90;;;;;;5095414;28;20024;-73
2023/01/06 06:39:56;;;;;;;198.82;131.57;;;6.20;99.90;;;;;;5084040;28;20527;-73
2023/01/06 06:42:22;;;;;;;238.43;159.10;;;6.30;99.90;;;;;;5094686;28;20130;-72
2023/01/06 06:44:47;;;;;;;204.68;145.63;;;6.30;99.90;;;;;;5085564;28;20020;-73
2023/01/06 06:47:14;;;;;;;219.13;151.77;;;6.40;99.90;;;;;;5088833;28;20032;-73
2023/01/06 06:49:40;;;;;;;166.10;115.07;;;6.40;99.90;;;;;;5085513;28;20020;-73
2023/01/06 06:52:06;;;;;;;129.77;82.60;;;6.50;99.90;;;;;;5078485;28;20448;-73
2023/01/06 06:54:32;;;;;;;131.52;91.43;;;6.50;99.90;;;;;;5081641;28;20082;-73
2023/01/06 06:56:58;;;;;;;145.75;98.03;;;6.40;99.90;;;;;;5094853;28;20024;-73
2023/01/06 06:59:23;;;;;;;157.30;93.47;;;6.50;99.90;;;;;;5094768;28;20056;-73
2023/01/06 07:01:49;;;;;;;127.32;87.32;;;6.60;99.90;;;;;;5086937;28;20032;-73
2023/01/06 07:04:15;;;;;;;131.38;91.90;;;6.70;99.90;;;;;;5091206;28;20013;-73
2023/01/06 07:06:41;;;;;;;194.07;130.95;;;6.90;99.90;;;;;;5094921;28;20115;-73
2023/01/06 07:09:06;;;;;;;171.50;114.95;;;7.00;99.90;;;;;;5091410;28;20589;-72
2023/01/06 07:11:32;;;;;;;156.93;106.45;;;7.10;99.90;;;;;;5084545;28;20038;-73
2023/01/06 07:13:58;;;;;;;178.45;118.45;;;7.10;99.90;;;;;;5094128;28;20532;-73
2023/01/06 07:16:25;;;;;;;188.80;125.25;;;7.20;99.90;;;;;;5094349;28;20038;-73
2023/01/06 07:18:52;;;;;;;166.48;114.80;;;7.30;99.90;;;;;;5091974;28;20012;-73
2023/01/06 07:21:17;;;;;;;161.77;114.68;;;7.30;99.90;;;;;;5094285;28;20043;-73
2023/01/06 07:23:43;;;;;;;159.88;109.97;;;7.30;99.90;;;;;;5094092;28;20012;-73
2023/01/06 07:26:10;;;;;;;130.55;94.15;;;7.30;99.90;;;;;;5094280;28;20032;-73
2023/01/06 07:28:36;;;;;;;151.75;106.38;;;7.20;99.90;;;;;;5087557;28;20016;-73
2023/01/06 07:31:02;;;;;;;212.50;148.07;;;7.30;99.90;;;;;;5094009;28;20024;-73
2023/01/06 07:33:28;;;;;;;216.25;152.73;;;7.40;99.90;;;;;;5093884;28;20475;-72
2023/01/06 07:35:55;;;;;;;220.20;159.07;;;7.50;99.90;;;;;;5082441;28;20029;-72
2023/01/06 07:38:21;;;;;;;221.60;154.07;;;7.60;99.90;;;;;;5071205;28;20033;-73
2023/01/06 07:40:47;;;;;;;207.80;147.80;;;7.70;99.90;;;;;;5085414;28;20048;-73
2023/01/06 07:43:13;;;;;;;234.50;172.60;;;7.90;99.90;;;;;;5093735;28;20161;-73
2023/01/06 07:45:39;;;;;;;230.60;163.90;;;8.00;99.90;;;;;;5093963;28;20486;-73
2023/01/06 07:48:05;;;;;;;208.77;148.38;;;8.20;99.90;;;;;;5093491;28;20026;-73
2023/01/06 07:50:32;;;;;;;185.98;131.07;;;8.40;99.90;;;;;;5082638;28;20472;-73
2023/01/06 07:52:59;;;;;;;179.50;128.85;;;8.50;99.90;;;;;;5092019;28;20479;-73
2023/01/06 07:55:25;;;;;;;162.77;115.15;;;8.70;99.90;;;;;;5094009;28;20039;-73
2023/01/06 07:57:51;;;;;;;153.32;108.80;;;8.80;99.90;;;;;;5064082;28;20467;-73
2023/01/06 08:00:17;;;;;;;66.60;44.40;;;8.90;99.90;;;;;;5094274;28;20039;-73
2023/01/06 08:02:43;;;;;;;61.85;40.28;;;9.10;99.90;;;;;;5093205;28;20032;-73
2023/01/06 08:05:09;;;;;;;53.58;34.70;;;9.30;99.90;;;;;;5086282;28;20081;-73
2023/01/06 08:07:35;;;;;;;54.08;38.33;;;9.50;99.90;;;;;;5093688;28;20024;-73
2023/01/06 08:10:01;;;;;;;74.03;50.60;;;9.60;99.90;;;;;;5093381;28;20472;-73
2023/01/06 08:12:27;;;;;;;70.22;48.65;;;9.80;99.90;;;;;;5093345;28;20453;-73
2023/01/06 08:14:52;;;;;;;54.10;39.30;;;9.90;99.90;;;;;;5081558;28;20039;-73
2023/01/06 08:17:18;;;;;;;51.67;37.17;;;10.00;99.90;;;;;;5091422;28;20017;-73
2023/01/06 08:19:44;;;;;;;41.78;29.70;;;10.10;99.90;;;;;;5081257;28;20468;-73
2023/01/06 08:22:10;;;;;;;50.05;33.08;;;10.10;99.90;;;;;;5091720;28;20024;-73
2023/01/06 08:24:36;;;;;;;47.30;32.05;;;10.20;99.90;;;;;;5091032;28;20024;-72
2023/01/06 08:27:02;;;;;;;46.78;31.08;;;10.30;99.90;;;;;;5091574;28;20479;-73
2023/01/06 08:29:28;;;;;;;41.15;28.75;;;10.30;99.90;;;;;;5092448;28;20028;-73
2023/01/06 08:31:53;;;;;;;37.50;23.63;;;10.40;99.90;;;;;;5091867;28;20107;-73
2023/01/06 08:34:19;;;;;;;36.50;25.08;;;10.40;99.90;;;;;;5093425;28;20035;-73
2023/01/06 08:36:45;;;;;;;35.88;25.58;;;10.50;99.90;;;;;;5084355;28;20452;-73
2023/01/06 08:39:12;;;;;;;45.13;27.48;;;10.60;99.90;;;;;;5093219;28;20433;-72
2023/01/06 08:41:39;;;;;;;41.75;26.85;;;10.70;99.90;;;;;;5086887;28;20056;-73
2023/01/06 08:44:05;;;;;;;39.95;26.20;;;10.90;99.90;;;;;;5072975;28;20082;-73
2023/01/06 08:46:31;;;;;;;34.85;23.33;;;10.90;99.90;;;;;;5072404;28;20027;-73
2023/01/06 08:48:57;;;;;;;35.00;22.45;;;11.00;99.90;;;;;;5072741;28;20361;-73
2023/01/06 08:51:24;;;;;;;30.65;20.85;;;11.00;99.90;;;;;;5072758;28;20179;-73
2023/01/06 08:53:51;;;;;;;29.52;19.67;;;11.00;99.90;;;;;;5083232;28;20032;-73
2023/01/06 08:56:22;;;;;;;24.98;18.20;;;11.00;99.90;;;;;;5092916;28;20345;-73
2023/01/06 08:58:59;;;;;;;28.85;18.40;;;11.00;99.90;;;;;;5085788;28;20020;-73
2023/01/06 09:01:29;;;;;;;29.60;18.67;;;11.10;99.90;;;;;;5091051;28;20043;-73
2023/01/06 09:03:57;;;;;;;33.25;20.67;;;11.20;99.90;;;;;;5071775;28;20025;-73
2023/01/06 09:06:23;;;;;;;30.45;18.98;;;11.20;99.90;;;;;;5071970;28;20081;-73
2023/01/06 09:08:49;;;;;;;28.48;17.83;;;11.30;99.90;;;;;;5092479;28;20417;-73
2023/01/06 09:11:16;;;;;;;28.00;19.25;;;11.40;99.90;;;;;;5092908;28;20060;-73
2023/01/06 09:13:42;;;;;;;28.48;17.30;;;11.50;99.90;;;;;;5092764;28;20456;-73
2023/01/06 09:16:09;;;;;;;28.67;18.85;;;11.60;99.90;;;;;;5088329;28;20356;-73
2023/01/06 09:18:37;;;;;;;29.27;17.42;;;11.60;99.90;;;;;;5088310;28;20067;-73
2023/01/06 09:21:03;;;;;;;28.95;17.27;;;11.80;99.90;;;;;;5089657;28;20036;-73
2023/01/06 09:23:30;;;;;;;28.63;17.55;;;11.80;99.90;;;;;;5092416;28;20021;-73
2023/01/06 09:25:57;;;;;;;31.83;19.58;;;11.90;99.90;;;;;;5084858;28;20483;-73
2023/01/06 09:28:23;;;;;;;33.95;20.13;;;11.90;99.90;;;;;;5094526;28;20032;-73
2023/01/06 09:30:49;;;;;;;25.83;17.38;;;12.00;99.90;;;;;;5089182;28;20028;-73
2023/01/06 09:33:16;;;;;;;25.50;15.35;;;12.00;99.90;;;;;;5092245;28;20035;-73
2023/01/06 09:35:45;;;;;;;27.70;17.25;;;12.00;99.90;;;;;;5095559;28;20020;-73
2023/01/06 09:38:13;;;;;;;26.13;16.63;;;12.00;99.90;;;;;;5096269;28;20383;-73
2023/01/06 09:41:01;;;;;;;28.55;16.90;;;12.10;99.90;;;;;;5096167;28;20444;-73
2023/01/06 09:43:36;;;;;;;23.40;15.23;;;12.10;99.90;;;;;;5082404;28;20028;-73
2023/01/06 09:46:03;;;;;;;24.17;14.63;;;12.30;99.90;;;;;;5096124;28;20028;-73
2023/01/06 09:48:38;;;;;;;25.30;16.40;;;12.40;99.90;;;;;;5078115;28;20025;-73
2023/01/06 09:51:05;;;;;;;25.85;15.27;;;12.50;99.90;;;;;;5093095;28;20024;-73
2023/01/06 09:53:38;;;;;;;21.50;13.18;;;12.50;99.90;;;;;;5085947;28;20028;-73
2023/01/06 09:56:12;;;;;;;22.20;14.68;;;12.30;99.90;;;;;;5092109;28;20400;-73
2023/01/06 09:58:42;;;;;;;23.75;14.77;;;12.30;99.90;;;;;;5075738;28;20059;-73
2023/01/06 10:01:11;;;;;;;21.17;14.05;;;12.30;99.90;;;;;;5079162;28;20102;-73
2023/01/06 10:03:38;;;;;;;21.98;13.18;;;12.40;99.90;;;;;;5077461;28;20533;-73
2023/01/06 10:06:30;;;;;;;23.45;14.98;;;12.50;99.90;;;;;;5095418;28;20027;-73
2023/01/06 10:09:08;;;;;;;24.67;13.45;;;12.50;99.90;;;;;;5089151;28;20042;-73
2023/01/06 10:12:05;;;;;;;25.52;14.50;;;12.50;99.90;;;;;;5095486;28;20388;-73
2023/01/06 10:14:43;;;;;;;25.27;15.02;;;12.50;99.90;;;;;;5095549;28;20078;-73
2023/01/06 10:17:24;;;;;;;22.95;12.18;;;12.50;99.90;;;;;;5095378;28;20024;-73
2023/01/06 10:20:02;;;;;;;19.98;12.20;;;12.50;99.90;;;;;;5087657;28;20375;-73
2023/01/06 10:22:46;;;;;;;21.52;14.20;;;12.40;99.90;;;;;;5095668;28;20047;-73
2023/01/06 10:25:21;;;;;;;25.45;13.57;;;12.40;99.90;;;;;;5095374;28;20161;-72
2023/01/06 10:27:55;;;;;;;22.33;14.15;;;12.50;99.90;;;;;;5095354;28;20558;-73
2023/01/06 10:30:33;;;;;;;23.45;15.25;;;12.60;99.90;;;;;;5076636;28;20024;-73
2023/01/06 10:33:00;;;;;;;30.88;17.23;;;12.80;99.90;;;;;;5076155;28;20021;-73
2023/01/06 10:35:27;;;;;;;17.30;9.70;;;12.90;99.90;;;;;;5082681;28;20471;-73
2023/01/06 10:37:55;;;;;;;26.73;15.80;;;12.90;99.90;;;;;;5094942;28;20028;-73
2023/01/06 10:40:24;;;;;;;23.08;12.85;;;12.80;99.90;;;;;;5082981;28;20016;-73
2023/01/06 10:42:58;;;;;;;20.70;9.93;;;12.60;99.90;;;;;;5090995;28;20055;-73
2023/01/06 10:45:40;;;;;;;18.42;12.15;;;12.80;99.90;;;;;;5083715;28;20057;-73
2023/01/06 10:48:14;;;;;;;22.20;12.93;;;12.70;99.90;;;;;;5073019;28;20434;-73
2023/01/06 10:50:40;;;;;;;20.15;11.43;;;12.80;99.90;;;;;;5080523;28;20020;-73
2023/01/06 10:53:08;;;;;;;19.48;12.05;;;12.90;99.90;;;;;;5084961;28;20027;-72
2023/01/06 10:55:43;;;;;;;22.85;12.75;;;12.90;99.90;;;;;;5074075;28;20031;-72
2023/01/06 10:58:42;;;;;;;17.73;10.25;;;12.90;99.90;;;;;;5073701;28;20058;-72
2023/01/06 11:01:17;;;;;;;20.52;12.27;;;12.80;99.90;;;;;;5074324;28;20047;-72
2023/01/06 11:03:44;;;;;;;21.30;11.73;;;12.80;99.90;;;;;;5074538;28;20353;-71
2023/01/06 11:06:16;;;;;;;19.63;11.40;;;12.90;99.90;;;;;;5074624;28;20377;-72
2023/01/06 11:08:41;;;;;;;19.15;11.00;;;12.90;99.90;;;;;;5074274;28;20033;-72
2023/01/06 11:11:12;;;;;;;15.32;8.63;;;13.00;99.90;;;;;;5084594;28;20051;-70
2023/01/06 11:13:40;;;;;;;15.43;8.63;;;13.00;99.90;;;;;;5080011;28;20028;-70
2023/01/06 11:16:23;;;;;;;17.67;8.75;;;12.90;99.90;;;;;;5083897;28;20016;-72
2023/01/06 11:18:59;;;;;;;15.65;8.30;;;13.00;99.90;;;;;;5090300;28;20029;-70
2023/01/06 11:21:48;;;;;;;14.35;7.43;;;13.00;99.90;;;;;;5086543;28;20093;-72
2023/01/06 11:24:20;;;;;;;18.20;9.77;;;13.10;99.90;;;;;;5082327;28;20039;-73
2023/01/06 11:26:53;;;;;;;11.60;6.38;;;13.10;99.90;;;;;;5093484;28;20534;-71
2023/01/06 11:29:47;;;;;;;17.27;7.40;;;13.10;99.90;;;;;;5076581;28;20099;-71
2023/01/06 11:32:25;;;;;;;11.90;6.40;;;13.20;99.90;;;;;;5091182;28;20024;-71
2023/01/06 11:35:04;;;;;;;20.42;7.38;;;13.20;99.90;;;;;;5086886;28;20035;-70
2023/01/06 11:37:40;;;;;;;13.85;6.97;;;13.30;99.90;;;;;;5071406;28;20165;-71
2023/01/06 11:40:34;;;;;;;11.13;6.18;;;13.30;99.90;;;;;;5071734;28;21117;-72
2023/01/06 11:43:07;;;;;;;14.68;7.70;;;13.30;99.90;;;;;;5068747;28;20127;-72
2023/01/06 11:45:46;;;;;;;14.32;7.45;;;13.30;99.90;;;;;;5073383;28;20126;-72
2023/01/06 11:48:16;;;;;;;23.77;10.25;;;13.30;99.90;;;;;;5073905;28;20173;-72
2023/01/06 11:51:00;;;;;;;17.73;9.13;;;13.40;99.90;;;;;;5073143;28;20059;-71
2023/01/06 11:53:28;;;;;;;16.20;8.30;;;13.40;99.90;;;;;;5073598;28;20060;-72
2023/01/06 11:56:01;;;;;;;14.98;7.88;;;13.30;99.90;;;;;;5073350;28;20044;-72
2023/01/06 11:58:39;;;;;;;19.63;7.85;;;13.40;99.90;;;;;;5073646;28;20021;-72
2023/01/06 12:01:14;;;;;;;20.35;8.02;;;13.30;99.90;;;;;;5073401;28;20043;-71
2023/01/06 12:03:43;;;;;;;16.77;9.00;;;13.20;99.90;;;;;;5073320;28;20509;-72
2023/01/06 12:06:12;;;;;;;18.38;9.40;;;13.30;99.90;;;;;;5073436;28;20036;-72
2023/01/06 12:08:58;;;;;;;19.65;8.32;;;13.30;99.90;;;;;;5073389;28;20048;-72
2023/01/06 12:11:45;;;;;;;16.13;8.40;;;13.20;99.90;;;;;;5072619;28;20094;-73
2023/01/06 12:14:14;;;;;;;15.88;8.07;;;13.30;99.90;;;;;;5073119;28;20553;-72
2023/01/06 12:17:12;;;;;;;15.40;8.18;;;13.20;99.90;;;;;;5073265;28;20027;-72
2023/01/06 12:19:49;;;;;;;19.52;8.93;;;13.30;99.90;;;;;;5035789;28;20435;-72
2023/01/06 12:22:38;;;;;;;18.58;9.50;;;13.40;99.90;;;;;;5030273;28;20102;-72
2023/01/06 12:25:10;;;;;;;18.52;9.23;;;13.40;99.90;;;;;;5024956;28;20040;-72
2023/01/06 12:27:42;;;;;;;14.45;8.30;;;13.50;99.90;;;;;;5013662;28;20049;-71
2023/01/06 12:30:25;;;;;;;15.60;9.18;;;13.60;99.90;;;;;;5030312;28;20025;-71
2023/01/06 12:32:55;;;;;;;13.93;7.95;;;13.50;99.90;;;;;;5030350;28;20030;-71
2023/01/06 12:35:25;;;;;;;17.95;9.05;;;13.50;99.90;;;;;;5029714;28;20029;-72
2023/01/06 12:38:21;;;;;;;13.63;7.30;;;13.50;99.90;;;;;;5029871;28;20042;-71
2023/01/06 12:40:59;;;;;;;17.90;9.75;;;13.50;99.90;;;;;;5026541;28;20144;-71
2023/01/06 12:43:29;;;;;;;15.80;9.35;;;13.50;99.90;;;;;;5008986;28;20046;-72
2023/01/06 12:46:08;;;;;;;17.88;8.40;;;13.50;99.90;;;;;;4993256;28;20030;-72
2023/01/06 12:48:34;;;;;;;22.75;8.35;;;13.50;99.90;;;;;;5010627;28;20033;-72
2023/01/06 12:51:13;;;;;;;15.40;8.75;;;13.50;99.90;;;;;;5010677;28;20045;-71
2023/01/06 12:53:44;;;;;;;15.68;9.00;;;13.50;99.90;;;;;;5008121;28;20025;-71
2023/01/06 12:56:10;;;;;;;15.20;8.93;;;13.50;99.90;;;;;;5018212;28;20030;-71